This is the latest recevied weather packets stored in our database for station/object XE2B-20. If no packets are shown the sender has not sent any weather packets the latest 10 day(s).
| Time | Temp. | Humidity | Pressure | Rain* | Wind** | Luminosity | Snow |
|---|---|---|---|---|---|---|---|
| 1777412554 | 34.44° C | 13% | 804.6 hPa | - | - | - | - |
| 1777411055 | 33.33° C | 15% | 804.8 hPa | - | - | - | - |
| 1777409556 | 37.22° C | 13% | 805 hPa | - | - | - | - |
| 1777408058 | 37.22° C | 13% | 805.4 hPa | - | - | - | - |
| 1777406563 | 36.11° C | 13% | 805.9 hPa | - | - | - | - |
| 1777405058 | 37.78° C | 12% | 806.3 hPa | - | - | - | - |
| 1777403560 | 36.67° C | 13% | 806.8 hPa | - | - | - | - |
| 1777402483 | 35.56° C | 13% | 806.9 hPa | - | - | - | - |
| 1777400985 | 36.11° C | 13% | 807.3 hPa | - | - | - | - |
| 1777399486 | 35.56° C | 13% | 807.5 hPa | - | - | - | - |
| 1777397989 | 35.56° C | 13% | 807.8 hPa | - | - | - | - |
| 1777396490 | 35.56° C | 13% | 807.9 hPa | - | - | - | - |
| 1777394991 | 35.56° C | 13% | 808.1 hPa | - | - | - | - |
| 1777393492 | 36.11° C | 12% | 808.3 hPa | - | - | - | - |
| 1777391994 | 35° C | 13% | 808.4 hPa | - | - | - | - |
| 1777390494 | 32.78° C | 13% | 808.5 hPa | - | - | - | - |
| 1777388994 | 30° C | 15% | 808.6 hPa | - | - | - | - |
| 1777387495 | 28.33° C | 15% | 808.5 hPa | - | - | - | - |
| 1777385995 | 26.11° C | 16% | 808.2 hPa | - | - | - | - |
| 1777384496 | 23.33° C | 17% | 808 hPa | - | - | - | - |
| 1777382996 | 21.11° C | 18% | 807.9 hPa | - | - | - | - |
| 1777381496 | 18.33° C | 19% | 807.8 hPa | - | - | - | - |
| 1777379994 | 13.89° C | 23% | 807.5 hPa | - | - | - | - |
| 1777378496 | 14.44° C | 23% | 807.2 hPa | - | - | - | - |
| 1777376996 | 15° C | 22% | 806.9 hPa | - | - | - | - |
* Rain since midnight (hover to see other rain measurements)
** Current wind speed in m/s (hover to see current wind gust speed)